Time;durP1;ratioP1;P1;durP2;ratioP2;P2;SDS_P1;SDS_P2;PMS_P1;PMS_P2;Temp;Humidity;BMP_temperature;BMP_pressure;BME280_temperature;BME280_humidity;BME280_pressure;Samples;Min_cycle;Max_cycle;Signal;HPM_P1;HPM_P2
2022/10/09 00:01:36;;;;;;;17.00;12.90;;;13.10;99.90;;;13.56;100.00;99084.81;5048251;27;125346;-75
2022/10/09 00:04:05;;;;;;;17.55;12.77;;;13.10;99.90;;;13.54;100.00;99100.72;5061785;27;129427;-76
2022/10/09 00:06:36;;;;;;;17.30;14.00;;;13.10;99.90;;;13.41;100.00;99099.09;5027111;27;129398;-74
2022/10/09 00:09:05;;;;;;;16.88;12.90;;;13.10;99.90;;;13.42;100.00;99090.59;5043346;27;125224;-77
2022/10/09 00:11:35;;;;;;;19.90;14.57;;;13.10;99.90;;;13.43;100.00;99091.38;5041768;27;125851;-76
2022/10/09 00:14:04;;;;;;;17.88;13.90;;;13.20;99.90;;;13.40;100.00;99092.06;5021813;27;130139;-76
2022/10/09 00:16:34;;;;;;;20.08;13.07;;;13.20;99.90;;;13.35;100.00;99089.56;5021903;27;128768;-75
2022/10/09 00:19:03;;;;;;;17.40;13.30;;;13.20;99.90;;;13.36;100.00;99091.16;5020323;27;125385;-74
2022/10/09 00:21:34;;;;;;;16.00;12.77;;;13.20;99.90;;;13.39;100.00;99079.59;5035072;27;125911;-73
2022/10/09 00:24:05;;;;;;;19.63;13.98;;;13.30;99.90;;;13.39;100.00;99079.59;5043219;27;130393;-74
2022/10/09 00:26:38;;;;;;;15.60;12.73;;;13.30;99.90;;;13.39;100.00;99079.59;5061690;27;129430;-76
2022/10/09 00:29:07;;;;;;;17.40;14.05;;;13.30;99.90;;;13.42;100.00;99073.47;5058033;27;125601;-75
2022/10/09 00:31:42;;;;;;;15.30;13.00;;;13.20;99.90;;;13.49;100.00;99065.47;5039568;27;126177;-74
2022/10/09 00:34:12;;;;;;;18.98;13.98;;;13.20;99.90;;;13.52;100.00;99072.97;5009191;27;128792;-75
2022/10/09 00:36:41;;;;;;;17.70;13.52;;;13.10;99.90;;;13.56;100.00;99082.06;5061034;27;128862;-78
2022/10/09 00:39:10;;;;;;;19.13;14.13;;;13.10;99.90;;;13.59;100.00;99084.13;5025393;27;125330;-73
2022/10/09 00:41:39;;;;;;;18.13;15.55;;;13.10;99.90;;;13.57;100.00;99080.94;5039525;27;125737;-74
2022/10/09 00:44:50;;;;;;;17.85;14.70;;;13.10;99.90;;;13.55;100.00;99077.75;5022035;27;129935;-74
2022/10/09 00:47:26;;;;;;;17.95;14.30;;;13.00;99.90;;;13.50;100.00;99075.25;5057487;27;129569;-75
2022/10/09 00:49:58;;;;;;;;;;;13.10;99.90;;;13.45;100.00;99072.78;5057548;27;125609;-76
2022/10/09 00:52:27;;;;;;;17.17;13.80;;;13.00;99.90;;;13.46;100.00;99074.34;5042303;27;124102;-74
2022/10/09 00:54:57;;;;;;;20.27;14.15;;;13.00;99.90;;;13.48;100.00;99072.88;5024939;27;130160;-74
2022/10/09 00:57:26;;;;;;;20.88;15.13;;;13.00;99.90;;;13.49;100.00;99090.03;5041874;27;128742;-74
2022/10/09 00:59:55;;;;;;;17.27;13.60;;;13.00;99.90;;;13.48;100.00;99078.34;5056968;27;125772;-71
2022/10/09 01:02:26;;;;;;;18.98;13.88;;;13.00;99.90;;;13.49;100.00;99062.75;5057432;27;125713;-75
2022/10/09 01:04:55;;;;;;;16.30;13.73;;;13.00;99.90;;;13.50;100.00;99058.13;5042064;27;129880;-74
2022/10/09 01:07:36;;;;;;;16.23;13.05;;;13.00;99.90;;;13.50;100.00;99061.63;5041765;27;129361;-76
2022/10/09 01:10:18;;;;;;;16.90;13.32;;;13.00;99.90;;;13.50;100.00;99058.91;5025357;27;126062;-73
2022/10/09 01:12:54;;;;;;;16.23;13.65;;;13.00;99.90;;;13.50;100.00;99061.63;5043695;27;127219;-74
2022/10/09 01:15:27;;;;;;;;;;;13.00;99.90;;;13.45;100.00;99056.41;5060746;27;130366;-74
2022/10/09 01:18:05;;;;;;;18.85;14.32;;;13.00;99.90;;;13.47;100.00;99054.13;5045569;27;129058;-74
2022/10/09 01:20:44;;;;;;;18.85;13.18;;;13.00;99.90;;;13.45;100.00;99056.41;5060796;27;125366;-75
2022/10/09 01:23:58;;;;;;;17.65;13.50;;;13.00;99.90;;;13.42;100.00;99057.09;5045938;27;127048;-74
2022/10/09 01:26:57;;;;;;;16.70;13.10;;;13.00;99.90;;;13.47;100.00;99054.13;5045538;27;129402;-74
2022/10/09 01:29:32;;;;;;;16.73;13.38;;;13.00;99.90;;;13.50;100.00;99048.00;5060540;27;129905;-74
2022/10/09 01:32:02;;;;;;;16.00;12.67;;;13.00;99.90;;;13.49;100.00;99057.31;5044886;27;125415;-74
2022/10/09 01:34:32;;;;;;;17.27;14.05;;;12.90;99.90;;;13.48;100.00;99055.75;5060158;27;125529;-74
2022/10/09 01:37:02;;;;;;;14.88;12.30;;;12.90;99.90;;;13.47;100.00;99054.91;5059845;27;130155;-73
2022/10/09 01:39:33;;;;;;;15.93;13.15;;;12.90;99.90;;;13.50;100.00;99055.41;5060304;27;129509;-74
2022/10/09 01:42:05;;;;;;;18.20;13.55;;;12.90;99.90;;;13.50;100.00;99058.13;5060238;27;125653;-74
2022/10/09 01:44:34;;;;;;;17.48;14.65;;;12.90;99.90;;;13.44;100.00;99061.06;5060108;27;126863;-73
2022/10/09 01:47:05;;;;;;;17.58;13.38;;;12.80;99.90;;;13.39;100.00;99063.22;5044783;27;129372;-74
2022/10/09 01:49:42;;;;;;;16.92;13.48;;;12.80;99.90;;;13.41;100.00;99060.94;5041233;27;129898;-74
2022/10/09 01:52:26;;;;;;;;;;;12.80;99.90;;;13.33;100.00;99059.13;5062393;27;124941;-74
2022/10/09 01:55:12;;;;;;;17.15;12.80;;;12.80;99.90;;;13.36;100.00;99061.19;5062226;27;125429;-73
2022/10/09 01:57:52;;;;;;;15.57;13.50;;;12.80;99.90;;;13.34;100.00;99083.31;5043285;27;129936;-72
2022/10/09 02:00:21;;;;;;;17.90;13.10;;;12.80;99.90;;;13.31;100.00;99068.41;5060167;27;129446;-77
2022/10/09 02:02:51;;;;;;;19.92;13.57;;;12.80;99.90;;;13.30;100.00;99069.53;5059892;27;126242;-74
2022/10/09 02:05:24;;;;;;;18.27;13.77;;;12.80;99.90;;;13.28;100.00;99085.44;5044302;27;126345;-74
2022/10/09 02:07:53;;;;;;;18.65;14.82;;;12.80;99.90;;;13.32;100.00;99080.09;5044660;27;129354;-77
2022/10/09 02:10:23;;;;;;;17.83;14.80;;;12.70;99.90;;;13.30;100.00;99077.72;5060011;27;129652;-75
2022/10/09 02:12:57;;;;;;;19.35;15.80;;;12.70;99.90;;;13.30;100.00;99093.28;5059888;27;125381;-78
2022/10/09 02:15:34;;;;;;;17.50;14.65;;;12.70;99.90;;;13.23;100.00;99088.41;5024403;27;124697;-76
2022/10/09 02:18:12;;;;;;;19.02;14.70;;;12.60;99.90;;;13.22;100.00;99092.25;5024025;27;132878;-73
2022/10/09 02:20:46;;;;;;;16.67;14.20;;;12.60;99.90;;;13.20;100.00;99067.28;5021456;27;129521;-73
2022/10/09 02:23:17;;;;;;;16.20;13.90;;;12.70;99.90;;;13.22;100.00;99056.81;5008144;27;124935;-73
2022/10/09 02:25:46;;;;;;;20.10;15.35;;;12.60;99.90;;;13.24;100.00;99060.00;5039236;27;125541;-74
2022/10/09 02:28:16;;;;;;;18.20;14.82;;;12.60;99.90;;;13.24;100.00;99073.63;5041917;27;129500;-74
2022/10/09 02:30:52;;;;;;;18.92;15.43;;;12.60;99.90;;;13.17;100.00;99081.59;5038949;27;129267;-73
2022/10/09 02:33:31;;;;;;;20.60;14.13;;;12.60;99.90;;;13.15;100.00;99092.03;5039169;27;126816;-75
2022/10/09 02:36:00;;;;;;;21.80;15.35;;;12.60;99.90;;;13.16;100.00;99092.81;5037824;27;125469;-73
2022/10/09 02:38:29;;;;;;;18.25;14.60;;;12.60;99.90;;;13.09;100.00;99102.34;5057232;27;130390;-74
2022/10/09 02:41:01;;;;;;;18.52;14.25;;;12.70;99.90;;;13.10;100.00;99094.94;5044206;27;129001;-74
2022/10/09 02:43:31;;;;;;;20.55;15.55;;;12.70;99.90;;;13.11;100.00;99091.09;5027781;27;125250;-73
2022/10/09 02:46:00;;;;;;;19.13;15.20;;;12.70;99.90;;;13.16;100.00;99088.16;5059625;27;125641;-74
2022/10/09 02:48:29;;;;;;;17.95;15.35;;;12.60;99.90;;;13.19;100.00;99095.66;5059008;27;129760;-74
2022/10/09 02:50:59;;;;;;;20.58;15.85;;;12.70;99.90;;;13.16;100.00;99109.16;5041019;27;129818;-75
2022/10/09 02:53:28;;;;;;;19.40;15.48;;;12.70;99.90;;;13.11;100.00;99110.19;5043030;27;126302;-76
2022/10/09 02:55:57;;;;;;;20.13;16.45;;;12.80;99.90;;;13.05;100.00;99098.69;5040602;27;126105;-73
2022/10/09 02:58:25;;;;;;;16.85;14.38;;;12.70;99.90;;;13.05;100.00;99108.81;5039262;27;130201;-73
2022/10/09 03:00:57;;;;;;;18.65;15.40;;;12.70;99.90;;;12.97;100.00;99096.06;5024868;27;129329;-74
2022/10/09 03:03:26;;;;;;;19.98;16.25;;;12.80;99.90;;;13.01;100.00;99099.69;5043816;27;125430;-75
2022/10/09 03:06:01;;;;;;;19.65;15.98;;;12.80;99.90;;;13.06;100.00;99104.94;5037873;27;126236;-75
2022/10/09 03:08:30;;;;;;;19.95;16.15;;;12.80;99.90;;;13.09;100.00;99109.72;5038431;27;130385;-74
2022/10/09 03:10:58;;;;;;;21.63;17.00;;;12.80;99.90;;;13.05;100.00;99116.97;5038606;27;130700;-74
2022/10/09 03:13:27;;;;;;;21.23;17.30;;;12.70;99.90;;;12.98;100.00;99119.44;5038339;27;126201;-73
2022/10/09 03:16:03;;;;;;;21.70;17.40;;;12.70;99.90;;;12.91;100.00;99115.34;5039397;27;125901;-75
2022/10/09 03:18:34;;;;;;;18.98;15.57;;;12.70;99.90;;;12.90;100.00;99108.31;5041388;27;129174;-75
2022/10/09 03:21:06;;;;;;;19.63;14.48;;;12.60;99.90;;;12.88;100.00;99116.00;5021176;27;129303;-74
2022/10/09 03:23:35;;;;;;;17.85;14.18;;;12.50;99.90;;;12.84;100.00;99126.00;5040185;27;126380;-73
2022/10/09 03:26:06;;;;;;;16.35;11.95;;;12.50;99.90;;;12.74;100.00;99123.69;5046529;27;125992;-75
2022/10/09 03:28:36;;;;;;;14.48;11.32;;;12.50;99.90;;;12.67;100.00;99116.06;5042050;27;127857;-74
2022/10/09 03:31:07;;;;;;;14.70;11.55;;;12.50;99.90;;;12.68;100.00;99106.75;5037838;27;129576;-74
2022/10/09 03:33:37;;;;;;;14.18;10.80;;;12.40;99.90;;;12.70;100.00;99109.13;5039205;27;124817;-75
2022/10/09 03:36:08;;;;;;;15.90;11.32;;;12.40;99.90;;;12.65;100.00;99117.53;5024316;27;125156;-72
2022/10/09 03:38:37;;;;;;;16.75;11.45;;;12.40;99.90;;;12.59;100.00;99123.19;5040070;27;129350;-77
2022/10/09 03:41:07;;;;;;;14.63;11.45;;;12.40;99.90;;;12.58;100.00;99118.84;5007208;27;129304;-73
2022/10/09 03:43:36;;;;;;;17.48;11.27;;;12.30;99.90;;;12.57;100.00;99109.13;5023285;27;126023;-72
2022/10/09 03:46:09;;;;;;;14.60;10.73;;;12.40;99.90;;;12.55;100.00;99113.28;5020382;27;127058;-73
2022/10/09 03:48:38;;;;;;;14.77;10.60;;;12.30;99.90;;;12.60;100.00;99110.34;5037607;27;130500;-77
2022/10/09 03:51:07;;;;;;;16.98;12.55;;;12.30;99.90;;;12.56;100.00;99126.56;5036471;27;129793;-73
2022/10/09 03:53:36;;;;;;;17.00;13.27;;;12.30;99.90;;;12.62;100.00;99118.19;5056504;27;124724;-73
2022/10/09 03:56:04;;;;;;;16.05;12.52;;;12.30;99.90;;;12.63;100.00;99117.84;5036508;27;125986;-70
2022/10/09 03:58:33;;;;;;;18.02;13.77;;;12.30;99.90;;;12.54;100.00;99134.28;5037713;27;129845;-72
2022/10/09 04:01:01;;;;;;;16.25;12.35;;;12.30;99.90;;;12.55;100.00;99135.06;5038052;27;130230;-72
2022/10/09 04:03:32;;;;;;;20.50;14.52;;;12.30;99.90;;;12.53;100.00;99132.69;5039692;27;124162;-74
2022/10/09 04:06:00;;;;;;;19.17;13.63;;;12.30;99.90;;;12.50;100.00;99138.78;5021795;27;125313;-72
2022/10/09 04:08:29;;;;;;;18.98;14.35;;;12.30;99.90;;;12.44;100.00;99134.69;5035618;27;129681;-73
2022/10/09 04:10:59;;;;;;;17.77;13.35;;;12.30;99.90;;;12.44;100.00;99142.84;5037314;27;129477;-74
2022/10/09 04:13:28;;;;;;;20.45;14.25;;;12.20;99.90;;;12.41;100.00;99143.50;5039350;27;124788;-72
2022/10/09 04:15:57;;;;;;;17.52;13.43;;;12.20;99.90;;;12.37;100.00;99140.66;5037222;27;126333;-71
2022/10/09 04:18:26;;;;;;;22.63;14.32;;;12.10;99.90;;;12.37;100.00;99134.41;5038549;27;130030;-74
2022/10/09 04:20:57;;;;;;;17.00;13.95;;;12.10;99.90;;;12.33;100.00;99144.38;5037457;27;130030;-74
2022/10/09 04:23:27;;;;;;;20.38;14.80;;;12.00;99.90;;;12.27;100.00;99154.66;5039477;27;125840;-74
2022/10/09 04:25:58;;;;;;;19.45;14.38;;;12.00;99.90;;;12.25;100.00;99158.81;5037403;27;125558;-75
2022/10/09 04:28:29;;;;;;;22.20;15.23;;;12.00;99.90;;;12.22;100.00;99161.09;5055844;27;129360;-73
2022/10/09 04:30:58;;;;;;;20.33;14.95;;;12.00;99.90;;;12.17;100.00;99169.44;5035795;27;130249;-74
2022/10/09 04:33:27;;;;;;;22.15;15.48;;;11.90;99.90;;;12.18;100.00;99171.03;5037044;27;126896;-75
2022/10/09 04:35:59;;;;;;;19.20;13.80;;;11.90;99.90;;;12.17;100.00;99174.88;5019126;27;126355;-72
2022/10/09 04:38:28;;;;;;;21.60;13.77;;;11.90;99.90;;;12.17;100.00;99176.78;5022574;27;129073;-71
2022/10/09 04:40:58;;;;;;;21.05;15.45;;;11.90;99.90;;;12.09;100.00;99181.19;5036972;27;129468;-76
2022/10/09 04:43:29;;;;;;;22.35;15.02;;;11.90;99.90;;;12.08;100.00;99182.31;5039257;27;125499;-75
2022/10/09 04:45:57;;;;;;;21.77;16.35;;;11.90;99.90;;;12.05;100.00;99182.97;5039871;27;125561;-72
2022/10/09 04:48:27;;;;;;;24.33;16.98;;;11.90;99.90;;;12.00;100.00;99185.88;5035906;27;129843;-74
2022/10/09 04:50:57;;;;;;;20.58;15.82;;;11.90;99.90;;;12.00;100.00;99185.88;5036913;27;129531;-73
2022/10/09 04:53:25;;;;;;;23.60;16.30;;;11.90;99.90;;;11.95;100.00;99191.47;5016389;27;126031;-71
2022/10/09 04:55:54;;;;;;;25.88;17.65;;;11.90;99.90;;;12.06;100.00;99190.00;5016475;28;125596;-74
2022/10/09 04:58:22;;;;;;;23.33;16.58;;;11.90;99.90;;;12.11;100.00;99191.72;5020080;27;131461;-75
2022/10/09 05:00:51;;;;;;;26.92;16.17;;;11.90;99.90;;;12.12;100.00;99193.31;5036494;27;129392;-74
2022/10/09 05:03:20;;;;;;;18.95;15.38;;;11.80;99.90;;;12.22;100.00;99196.44;5035957;27;125996;-74
2022/10/09 05:05:48;;;;;;;24.00;16.08;;;11.80;99.90;;;12.29;100.00;99203.28;5041742;27;125863;-73
2022/10/09 05:08:19;;;;;;;23.08;14.73;;;11.80;99.90;;;12.30;100.00;99222.00;5038790;27;129882;-73
2022/10/09 05:10:48;;;;;;;23.48;15.02;;;11.80;99.90;;;12.31;100.00;99222.78;5041672;27;129301;-72
2022/10/09 05:13:16;;;;;;;24.17;15.93;;;11.80;99.90;;;12.31;100.00;99220.06;5056926;27;126929;-73
2022/10/09 05:15:45;;;;;;;20.95;14.60;;;11.80;99.90;;;12.31;100.00;99217.34;5057426;27;125572;-73
2022/10/09 05:18:14;;;;;;;18.98;14.35;;;11.80;99.90;;;12.29;100.00;99225.06;5041928;27;129050;-73
2022/10/09 05:20:43;;;;;;;17.92;14.85;;;11.80;99.90;;;12.32;100.00;99227.13;5022145;27;129268;-74
2022/10/09 05:23:12;;;;;;;22.88;15.02;;;11.80;99.90;;;12.23;100.00;99235.31;5057929;27;125248;-70
2022/10/09 05:25:42;;;;;;;19.35;14.75;;;11.80;99.90;;;12.18;100.00;99225.44;5025229;27;126176;-71
2022/10/09 05:28:11;;;;;;;19.20;14.60;;;11.80;99.90;;;12.13;100.00;99233.78;5059643;27;130007;-71
2022/10/09 05:30:41;;;;;;;21.55;15.40;;;11.80;99.90;;;12.11;100.00;99233.31;5038366;27;129479;-71
2022/10/09 05:33:10;;;;;;;19.85;13.93;;;11.80;99.90;;;12.11;100.00;99246.91;5038746;27;125495;-72
2022/10/09 05:35:41;;;;;;;17.58;13.75;;;11.80;99.90;;;12.16;100.00;99238.56;5038518;27;126337;-70
2022/10/09 05:38:09;;;;;;;20.17;12.18;;;11.80;99.90;;;12.25;100.00;99246.69;5041209;27;129390;-71
2022/10/09 05:40:38;;;;;;;17.00;12.50;;;11.80;99.90;;;12.16;100.00;99244.00;5056567;27;129716;-71
2022/10/09 05:43:09;;;;;;;15.95;12.05;;;11.80;99.90;;;12.29;100.00;99241.38;5038611;27;125743;-70
2022/10/09 05:45:37;;;;;;;18.58;12.10;;;11.80;99.90;;;12.12;100.00;99253.94;5056563;27;125781;-71
2022/10/09 05:48:06;;;;;;;17.45;12.57;;;11.80;99.90;;;11.99;100.00;99257.69;5056071;27;129864;-73
2022/10/09 05:50:35;;;;;;;18.63;12.50;;;11.80;99.90;;;12.02;100.00;99262.47;5059145;27;129867;-74
2022/10/09 05:53:03;;;;;;;19.58;12.10;;;11.80;99.90;;;12.15;100.00;99263.38;5038786;27;125708;-73
2022/10/09 05:55:32;;;;;;;18.85;11.85;;;11.80;99.90;;;12.26;100.00;99269.25;5041512;27;124585;-75
2022/10/09 05:58:01;;;;;;;15.95;10.73;;;11.80;99.90;;;12.29;100.00;99263.16;5040747;27;129749;-75
2022/10/09 06:00:31;;;;;;;20.60;10.98;;;11.80;99.90;;;12.30;100.00;99270.97;5059455;27;130389;-71
2022/10/09 06:02:59;;;;;;;15.95;11.70;;;11.80;99.90;;;12.38;100.00;99269.34;5059193;27;126414;-75
2022/10/09 06:05:28;;;;;;;15.25;10.32;;;11.80;99.90;;;12.41;100.00;99269.47;5041493;27;125488;-75
2022/10/09 06:07:57;;;;;;;15.75;10.63;;;11.90;99.90;;;12.48;100.00;99282.59;5062441;27;129946;-74
2022/10/09 06:10:27;;;;;;;18.20;14.10;;;11.90;99.90;;;12.45;100.00;99288.69;5059440;27;129629;-73
2022/10/09 06:12:56;;;;;;;17.92;13.98;;;11.90;99.90;;;12.40;100.00;99303.28;5059551;27;126633;-75
2022/10/09 06:15:25;;;;;;;14.98;11.45;;;11.90;99.90;;;12.45;100.00;99305.00;5044954;27;126669;-73
2022/10/09 06:17:56;;;;;;;18.95;13.80;;;11.90;99.90;;;12.46;100.00;99311.25;5043907;27;131191;-71
2022/10/09 06:20:25;;;;;;;17.20;12.32;;;11.90;99.90;;;12.47;100.00;99319.09;5040872;27;129957;-72
2022/10/09 06:22:53;;;;;;;19.05;14.80;;;11.90;99.90;;;12.36;100.00;99312.44;5027295;27;124893;-70
2022/10/09 06:25:21;;;;;;;17.88;11.20;;;11.80;99.90;;;12.30;100.00;99313.72;5059744;27;125736;-70
2022/10/09 06:27:50;;;;;;;21.30;14.82;;;11.80;99.90;;;12.21;100.00;99320.00;5059125;27;129828;-71
2022/10/09 06:30:18;;;;;;;16.92;10.95;;;11.80;99.90;;;12.18;100.00;99317.91;5056635;27;129284;-72
2022/10/09 06:32:49;;;;;;;18.13;13.57;;;11.70;99.90;;;12.13;100.00;99323.56;5040434;27;125813;-70
2022/10/09 06:35:20;;;;;;;14.98;12.32;;;11.70;99.90;;;12.07;100.00;99326.78;5058821;27;125836;-72
2022/10/09 06:37:48;;;;;;;16.30;9.52;;;11.70;99.90;;;12.03;100.00;99332.88;5058243;27;130604;-73
2022/10/09 06:40:17;;;;;;;14.02;9.93;;;11.60;99.90;;;12.00;100.00;99338.19;5060485;27;129891;-72
2022/10/09 06:42:45;;;;;;;16.00;9.75;;;11.60;99.90;;;11.99;100.00;99342.78;5058720;27;127244;-71
2022/10/09 06:45:19;;;;;;;13.07;9.70;;;11.70;99.90;;;12.00;100.00;99344.41;5056553;27;126108;-71
2022/10/09 06:47:47;;;;;;;15.73;8.80;;;11.60;99.90;;;11.99;100.00;99347.44;5060893;27;129705;-71
2022/10/09 06:50:16;;;;;;;16.65;8.98;;;11.60;99.90;;;11.99;100.00;99342.00;5058506;27;129509;-69
2022/10/09 06:52:46;;;;;;;11.60;7.07;;;11.60;99.90;;;12.10;100.00;99343.25;5058657;27;125895;-73
2022/10/09 06:55:14;;;;;;;12.30;8.15;;;11.60;99.90;;;12.20;100.00;99347.53;5059439;27;125522;-75
2022/10/09 06:57:43;;;;;;;13.07;8.13;;;11.60;99.90;;;12.26;100.00;99357.09;5058557;27;130173;-72
2022/10/09 07:00:13;;;;;;;12.70;7.97;;;11.60;99.90;;;12.30;100.00;99355.34;5059189;27;129522;-71
2022/10/09 07:02:42;;;;;;;16.25;7.95;;;11.70;99.90;;;12.29;100.00;99351.00;5058669;27;126207;-74
2022/10/09 07:05:10;;;;;;;13.10;7.00;;;11.70;99.90;;;12.26;100.00;99353.59;5040510;27;125466;-71
2022/10/09 07:07:40;;;;;;;11.38;7.07;;;11.70;99.90;;;12.29;100.00;99361.09;5061624;27;130009;-71
2022/10/09 07:10:11;;;;;;;12.50;7.30;;;11.70;99.90;;;12.43;100.00;99367.13;5057969;27;129649;-75
2022/10/09 07:12:39;;;;;;;11.07;6.35;;;11.80;99.90;;;12.48;100.00;99369.69;5057756;27;125899;-70
2022/10/09 07:15:09;;;;;;;18.65;11.75;;;11.80;99.90;;;12.57;100.00;99362.28;5058345;27;125411;-70
2022/10/09 07:17:38;;;;;;;13.10;7.55;;;11.90;99.90;;;12.63;100.00;99364.78;5058006;27;129673;-71
2022/10/09 07:20:07;;;;;;;13.32;7.03;;;11.90;99.90;;;12.59;100.00;99376.34;5058373;27;129814;-71
2022/10/09 07:22:36;;;;;;;9.77;6.22;;;11.80;99.90;;;12.83;100.00;99377.66;5043058;27;125469;-70
2022/10/09 07:25:06;;;;;;;11.82;7.40;;;12.00;99.90;;;13.00;100.00;99368.59;5058203;27;125726;-69
2022/10/09 07:27:35;;;;;;;12.32;7.13;;;12.10;99.90;;;13.13;100.00;99372.16;5057839;27;130071;-72
2022/10/09 07:30:06;;;;;;;11.55;6.43;;;12.10;98.10;;;13.35;100.00;99373.00;5058512;27;130020;-71
2022/10/09 07:32:34;;;;;;;10.88;6.25;;;12.30;96.00;;;13.30;100.00;99380.22;5042515;27;125119;-71
2022/10/09 07:35:03;;;;;;;10.45;5.78;;;12.40;84.60;;;13.39;100.00;99384.84;5057629;27;126015;-71
2022/10/09 07:37:31;;;;;;;12.27;5.68;;;12.30;90.70;;;13.31;100.00;99384.53;5059030;27;129859;-73
2022/10/09 07:40:00;;;;;;;8.00;4.68;;;12.20;81.70;;;13.33;100.00;99381.50;5025754;27;129623;-75
2022/10/09 07:42:28;;;;;;;9.38;5.07;;;12.20;64.20;;;13.42;100.00;99395.09;5058042;27;126235;-72
2022/10/09 07:44:58;;;;;;;10.27;5.00;;;12.30;63.00;;;13.18;100.00;99384.81;5040179;27;125614;-70
2022/10/09 07:47:27;;;;;;;9.07;4.35;;;12.20;63.60;;;13.02;100.00;99399.00;5042759;27;128478;-70
2022/10/09 07:49:55;;;;;;;8.30;4.43;;;12.20;50.80;;;12.92;100.00;99410.28;5057676;27;129465;-70
2022/10/09 07:52:24;;;;;;;7.57;4.88;;;12.10;47.60;;;12.82;100.00;99418.84;5041759;27;125941;-70
2022/10/09 07:54:52;;;;;;;8.85;4.45;;;12.10;41.80;;;12.79;100.00;99405.88;5057800;27;126103;-74
2022/10/09 07:57:21;;;;;;;7.88;4.30;;;12.00;59.90;;;12.55;100.00;99418.94;5057522;27;130525;-72
2022/10/09 07:59:49;;;;;;;8.65;4.32;;;11.90;50.00;;;12.46;100.00;99417.38;5042303;27;129416;-71
2022/10/09 08:02:20;;;;;;;10.02;4.28;;;11.80;55.60;;;12.54;100.00;99425.53;5057974;27;126243;-72
2022/10/09 08:04:48;;;;;;;11.85;5.20;;;11.80;53.00;;;12.90;100.00;99418.78;5058033;27;125466;-76
2022/10/09 08:07:17;;;;;;;8.75;5.32;;;12.10;35.00;;;13.09;99.86;99409.41;5038305;27;129636;-70
2022/10/09 08:09:45;;;;;;;7.60;4.10;;;12.20;30.30;;;13.56;97.27;99417.41;5037805;27;129386;-70
2022/10/09 08:12:13;;;;;;;7.40;3.80;;;12.40;23.60;;;14.12;92.11;99421.72;5037535;27;125876;-71
2022/10/09 08:14:42;;;;;;;8.38;3.90;;;12.90;1.00;;;14.16;89.52;99412.53;5037473;27;125928;-72
2022/10/09 08:17:10;;;;;;;6.20;3.42;;;12.80;1.00;;;13.90;90.86;99415.53;5036815;27;129793;-71
2022/10/09 08:19:40;;;;;;;7.35;2.92;;;12.70;1.00;;;13.68;90.17;99435.78;5036518;27;129511;-73
2022/10/09 08:22:10;;;;;;;6.25;3.58;;;12.60;1.00;;;13.71;90.50;99428.84;5039409;27;124533;-69
2022/10/09 08:24:39;;;;;;;6.15;3.17;;;12.70;1.00;;;13.58;90.30;99431.50;5036971;27;125878;-69
2022/10/09 08:27:07;;;;;;;10.25;3.70;;;12.70;1.00;;;13.53;89.05;99434.44;5015338;28;130134;-70
2022/10/09 08:29:36;;;;;;;7.75;3.25;;;12.70;1.00;;;13.51;88.29;99433.16;5016635;28;129511;-70
2022/10/09 08:32:04;;;;;;;7.43;3.08;;;12.70;1.00;;;13.16;90.59;99442.34;5017401;28;125456;-71
2022/10/09 08:34:33;;;;;;;8.60;2.97;;;12.50;1.00;;;13.30;90.08;99448.34;5001923;28;125261;-70
2022/10/09 08:37:02;;;;;;;5.93;2.80;;;12.60;1.00;;;13.40;90.74;99449.94;5015692;28;129856;-71
2022/10/09 08:39:31;;;;;;;7.03;3.05;;;12.60;1.00;;;13.56;88.86;99447.41;5027578;27;129532;-73
2022/10/09 08:42:02;;;;;;;6.00;2.58;;;12.60;1.00;;;13.63;87.48;99452.31;5036564;27;127073;-74
2022/10/09 08:44:36;;;;;;;6.43;2.50;;;12.70;1.00;;;13.84;85.40;99457.78;5038811;27;125794;-70
2022/10/09 08:47:13;;;;;;;7.65;3.25;;;12.70;1.00;;;13.88;86.11;99458.69;5036364;27;129917;-70
2022/10/09 08:49:49;;;;;;;5.82;2.88;;;12.80;1.00;;;13.63;85.76;99452.31;5036978;27;129428;-70
2022/10/09 08:52:36;;;;;;;6.72;3.03;;;12.60;1.00;;;13.33;87.59;99457.00;5037434;27;126898;-72
2022/10/09 08:55:15;;;;;;;6.75;2.53;;;12.30;1.00;;;12.86;88.58;99450.53;5037506;27;125580;-74
2022/10/09 08:57:50;;;;;;;8.38;3.10;;;12.10;1.00;;;12.80;90.12;99457.28;5036943;27;129847;-70
2022/10/09 09:00:21;;;;;;;6.93;2.97;;;12.00;1.00;;;12.89;90.39;99465.44;5037056;27;130422;-71
2022/10/09 09:03:44;;;;;;;5.72;2.78;;;12.20;1.00;;;13.77;85.71;99460.22;5036655;27;125641;-71
2022/10/09 09:06:22;;;;;;;5.72;2.85;;;12.60;1.00;;;14.57;82.04;99461.88;5047329;27;124956;-70
2022/10/09 09:09:00;;;;;;;9.55;2.90;;;13.20;1.00;;;14.74;80.47;99458.94;5041694;27;128812;-71
2022/10/09 09:11:43;;;;;;;6.57;2.90;;;13.40;1.00;;;14.35;82.88;99458.41;5055914;27;129523;-72
2022/10/09 09:14:32;;;;;;;7.05;2.60;;;13.10;1.00;;;13.99;83.73;99464.53;5051856;27;126998;-73
2022/10/09 09:17:11;;;;;;;7.65;2.47;;;12.90;1.00;;;13.41;90.29;99475.25;5049144;27;125353;-71
2022/10/09 09:19:52;;;;;;;7.85;2.30;;;12.50;1.00;;;12.63;94.14;99479.13;5055666;27;130220;-71
2022/10/09 09:22:20;;;;;;;13.50;2.83;;;11.90;1.00;;;11.99;100.00;99483.44;5037565;27;129726;-70
2022/10/09 09:24:53;;;;;;;7.55;2.40;;;11.50;1.00;;;12.03;100.00;99489.84;5054632;27;125431;-70
2022/10/09 09:27:28;;;;;;;10.40;3.58;;;11.60;33.80;;;12.06;100.00;99483.75;5056777;27;125373;-70
2022/10/09 09:30:02;;;;;;;7.95;3.45;;;11.50;54.60;;;12.43;100.00;99486.88;5055278;27;130660;-70
2022/10/09 09:32:33;;;;;;;7.50;3.08;;;11.80;69.90;;;12.95;100.00;99483.97;5059222;27;129912;-74
2022/10/09 09:35:15;;;;;;;8.60;2.70;;;12.20;30.30;;;13.11;100.00;99483.41;5059045;27;126460;-73
2022/10/09 09:37:43;;;;;;;7.25;3.10;;;12.20;44.40;;;13.43;100.00;99479.25;5059491;27;126420;-72
2022/10/09 09:40:19;;;;;;;6.35;2.80;;;12.50;53.90;;;14.06;99.82;99472.97;5032633;27;130762;-74
2022/10/09 09:42:48;;;;;;;7.35;3.10;;;12.80;48.50;;;14.42;98.97;99467.97;5045077;27;130260;-73
2022/10/09 09:45:23;;;;;;;6.78;2.80;;;13.20;34.90;;;14.02;94.85;99478.31;5038283;27;125585;-71
2022/10/09 09:47:58;;;;;;;5.93;2.58;;;12.70;5.90;;;13.62;97.28;99473.34;5024386;27;125024;-72
2022/10/09 09:50:35;;;;;;;7.07;2.45;;;12.50;26.80;;;13.38;96.74;99490.34;5038403;27;130674;-71
2022/10/09 09:53:13;;;;;;;8.10;2.78;;;12.50;13.20;;;13.54;95.09;99490.56;5038723;27;129549;-72
2022/10/09 09:55:43;;;;;;;4.85;2.22;;;12.60;1.00;;;13.71;92.16;99494.28;5037350;27;126654;-74
2022/10/09 09:58:17;;;;;;;4.25;2.00;;;12.60;1.00;;;13.64;89.48;99484.72;5023695;27;126022;-71
2022/10/09 10:00:55;;;;;;;7.28;2.22;;;12.50;1.00;;;13.66;88.91;99478.91;5036682;27;129568;-70
2022/10/09 10:03:25;;;;;;;3.33;1.85;;;12.50;1.00;;;13.47;89.51;99484.84;5038455;27;129254;-72
2022/10/09 10:05:53;;;;;;;7.07;2.75;;;12.40;1.00;;;13.51;89.60;99496.69;5038137;27;125534;-71
2022/10/09 10:08:25;;;;;;;5.85;2.25;;;12.50;1.00;;;13.54;89.07;99498.75;5058002;27;125600;-70
2022/10/09 10:10:58;;;;;;;4.13;2.10;;;12.40;1.00;;;13.41;91.48;99507.97;5059625;27;129915;-71
2022/10/09 10:13:36;;;;;;;4.55;2.03;;;12.40;1.00;;;13.56;88.64;99501.94;5059605;27;129685;-71
2022/10/09 10:16:08;;;;;;;7.30;2.40;;;12.30;1.00;;;13.88;87.25;99509.72;5058142;27;125946;-73
2022/10/09 10:18:42;;;;;;;8.38;2.78;;;12.50;1.00;;;13.85;84.77;99522.09;5059945;27;125881;-72